createdAt,value
2022-08-18T00:05:26.617Z,23.27
2022-08-18T00:10:58.546Z,23.28
2022-08-18T00:16:27.428Z,23.24
2022-08-18T00:21:56.182Z,23.00
2022-08-18T00:27:28.704Z,22.76
2022-08-18T00:32:58.628Z,22.70
2022-08-18T00:38:27.431Z,22.53
2022-08-18T00:43:58.863Z,22.45
2022-08-18T00:49:27.171Z,22.54
2022-08-18T00:54:56.912Z,22.23
2022-08-18T01:00:27.769Z,22.09
2022-08-18T01:06:00.012Z,22.12
2022-08-18T01:11:28.621Z,22.26
2022-08-18T01:17:16.624Z,22.41
2022-08-18T01:22:52.676Z,22.48
2022-08-18T01:28:22.518Z,22.32
2022-08-18T01:33:51.433Z,21.83
2022-08-18T01:40:59.602Z,21.98
2022-08-18T01:45:11.799Z,22.01
2022-08-18T01:50:41.578Z,21.89
2022-08-18T01:56:11.627Z,21.84
2022-08-18T02:01:48.479Z,21.64
2022-08-18T02:07:21.867Z,21.48
2022-08-18T02:13:00.447Z,21.51
2022-08-18T02:18:47.779Z,21.59
2022-08-18T02:24:16.857Z,21.67
2022-08-18T02:29:46.387Z,21.72
2022-08-18T02:35:15.592Z,21.84
2022-08-18T02:40:46.529Z,21.94
2022-08-18T02:46:16.933Z,22.10
2022-08-18T02:51:46.340Z,22.22
2022-08-18T02:57:15.556Z,22.32
2022-08-18T03:02:48.162Z,22.21
2022-08-18T03:08:16.948Z,22.12
2022-08-18T03:13:45.758Z,22.11
2022-08-18T03:19:16.481Z,22.03
2022-08-18T03:24:45.340Z,22.09
2022-08-18T03:30:14.099Z,22.30
2022-08-18T03:35:44.729Z,22.56
2022-08-18T03:41:18.599Z,22.78
2022-08-18T03:47:08.881Z,23.00
2022-08-18T03:52:41.666Z,23.23
2022-08-18T03:58:13.885Z,23.43
2022-08-18T04:03:42.948Z,23.61
2022-08-18T04:09:13.903Z,23.61
2022-08-18T04:14:43.041Z,23.51
2022-08-18T04:20:13.036Z,23.55
2022-08-18T04:25:43.863Z,23.66
2022-08-18T04:31:13.335Z,23.89
2022-08-18T04:36:42.801Z,24.12
2022-08-18T04:42:12.583Z,24.26
2022-08-18T04:47:43.191Z,24.23
2022-08-18T04:53:30.222Z,24.53
2022-08-18T04:59:01.455Z,24.84
2022-08-18T05:04:30.413Z,25.08
2022-08-18T05:09:59.487Z,25.16
2022-08-18T05:15:42.187Z,25.43
2022-08-18T05:21:18.133Z,25.74
2022-08-18T05:26:47.554Z,25.96
2022-08-18T05:32:30.276Z,26.17
2022-08-18T05:38:07.301Z,26.36
2022-08-18T05:43:37.515Z,26.47
2022-08-18T05:49:22.211Z,26.62
2022-08-18T05:55:11.491Z,26.77
2022-08-18T06:00:40.938Z,26.96
2022-08-18T06:06:14.267Z,27.18
2022-08-18T06:11:43.446Z,27.52
2022-08-18T06:17:19.601Z,27.87
2022-08-18T06:22:56.338Z,28.57
2022-08-18T06:28:25.145Z,31.03
2022-08-18T06:34:04.319Z,32.63
2022-08-18T06:39:36.999Z,33.37
2022-08-18T06:45:13.059Z,34.01
2022-08-18T06:50:48.447Z,34.44
2022-08-18T06:56:26.678Z,34.91
2022-08-18T07:02:00.356Z,35.16
2022-08-18T07:07:39.892Z,36.22
2022-08-18T07:13:26.792Z,35.56
2022-08-18T07:18:55.469Z,35.67
2022-08-18T07:24:29.255Z,36.34
2022-08-18T07:30:04.388Z,36.06
2022-08-18T07:35:39.218Z,35.90
2022-08-18T07:41:13.874Z,35.79
2022-08-18T07:46:47.064Z,35.79
2022-08-18T07:52:44.348Z,36.15
2022-08-18T07:58:16.755Z,34.96
2022-08-18T08:03:51.152Z,35.46
2022-08-18T08:09:24.685Z,33.89
2022-08-18T08:15:02.008Z,34.33
2022-08-18T08:20:37.660Z,34.80
2022-08-18T08:26:18.838Z,34.68
2022-08-18T08:31:50.206Z,32.82
2022-08-18T08:37:22.249Z,32.97
2022-08-18T08:42:53.159Z,33.63
2022-08-18T08:48:24.699Z,34.56
2022-08-18T08:53:57.287Z,35.10
2022-08-18T08:59:26.179Z,35.48
2022-08-18T09:05:08.720Z,35.77
2022-08-18T09:11:01.102Z,36.26
2022-08-18T09:16:39.670Z,36.90
2022-08-18T09:22:13.652Z,35.17
2022-08-18T09:28:09.336Z,34.47
2022-08-18T09:33:45.792Z,34.95
2022-08-18T09:39:38.733Z,34.37
2022-08-18T09:45:33.520Z,33.77
2022-08-18T09:51:20.955Z,34.33
2022-08-18T09:57:16.599Z,34.54
2022-08-18T10:03:12.565Z,34.18
2022-08-18T10:08:52.686Z,32.91
2022-08-18T10:14:31.855Z,32.65
2022-08-18T10:20:06.409Z,33.96
2022-08-18T10:25:39.904Z,35.79
2022-08-18T10:31:10.283Z,37.09
2022-08-18T10:36:45.846Z,38.09
2022-08-18T10:42:19.325Z,37.08
2022-08-18T10:47:59.320Z,37.33
2022-08-18T10:53:43.958Z,36.04
2022-08-18T10:59:19.893Z,36.48
2022-08-18T11:04:59.598Z,36.47
2022-08-18T11:10:57.490Z,35.91
2022-08-18T11:16:32.926Z,35.02
2022-08-18T11:22:02.892Z,34.19
2022-08-18T11:27:35.771Z,33.05
2022-08-18T11:33:07.142Z,32.02
2022-08-18T11:38:39.318Z,31.96
2022-08-18T11:44:16.615Z,31.96
2022-08-18T11:55:48.175Z,30.19
2022-08-18T12:01:40.841Z,28.95
2022-08-18T12:07:14.308Z,28.51
2022-08-18T12:12:51.919Z,28.30
2022-08-18T12:24:26.030Z,26.89
2022-08-18T12:29:58.361Z,26.41
2022-08-18T12:35:27.260Z,26.36
2022-08-18T12:40:57.265Z,26.46
2022-08-18T12:46:26.283Z,26.33
2022-08-18T12:51:55.821Z,26.56
2022-08-18T12:57:51.651Z,26.71
2022-08-18T13:03:19.223Z,27.50
2022-08-18T13:08:50.310Z,28.03
2022-08-18T13:14:23.663Z,28.43
2022-08-18T13:19:52.237Z,28.42
2022-08-18T13:25:32.641Z,28.44
2022-08-18T13:31:05.328Z,28.25
2022-08-18T13:36:46.204Z,27.96
2022-08-18T13:42:26.274Z,27.80
2022-08-18T13:47:59.606Z,28.11
2022-08-18T13:53:31.934Z,27.91
2022-08-18T13:59:00.873Z,27.67
2022-08-18T14:04:31.292Z,27.76
2022-08-18T14:10:04.613Z,28.15
2022-08-18T14:15:36.412Z,28.09
2022-08-18T14:21:23.806Z,28.29
2022-08-18T14:26:52.732Z,28.73
2022-08-18T14:32:29.037Z,28.86
2022-08-18T14:38:02.603Z,28.06
2022-08-18T14:43:51.675Z,28.08
2022-08-18T14:49:28.719Z,28.37
2022-08-18T14:54:59.460Z,28.75
2022-08-18T15:00:29.143Z,28.77
2022-08-18T15:05:58.206Z,28.51
2022-08-18T15:11:29.456Z,28.19
2022-08-18T15:17:01.294Z,27.94
2022-08-18T15:22:47.790Z,28.06
2022-08-18T15:28:20.115Z,27.86
2022-08-18T15:33:50.237Z,27.52
2022-08-18T15:39:20.248Z,27.61
2022-08-18T15:44:53.978Z,27.61
2022-08-18T15:50:25.734Z,27.68
2022-08-18T15:55:54.806Z,27.74
2022-08-18T16:01:32.109Z,27.79
2022-08-18T16:07:02.034Z,27.58
2022-08-18T16:12:31.241Z,27.54
2022-08-18T16:18:01.494Z,27.50
2022-08-18T16:23:30.298Z,27.22
2022-08-18T16:29:01.637Z,27.22
2022-08-18T16:34:32.543Z,27.24
2022-08-18T16:40:01.434Z,27.23
2022-08-18T16:45:31.694Z,27.12
2022-08-18T16:51:02.506Z,27.01
2022-08-18T16:56:34.792Z,26.97
2022-08-18T17:02:30.438Z,26.91
2022-08-18T17:08:00.918Z,26.63
2022-08-18T17:13:30.021Z,26.55
2022-08-18T17:19:00.368Z,26.51
2022-08-18T17:24:31.678Z,26.35
2022-08-18T17:30:05.005Z,26.30
2022-08-18T17:35:35.691Z,26.20
2022-08-18T17:41:06.348Z,26.16
2022-08-18T17:46:41.359Z,26.13
2022-08-18T17:52:10.013Z,26.11
2022-08-18T17:57:43.175Z,26.05
2022-08-18T18:03:13.391Z,26.01
2022-08-18T18:08:49.062Z,25.95
2022-08-18T18:14:26.610Z,25.96
2022-08-18T18:19:56.817Z,25.93
2022-08-18T18:25:34.684Z,25.85
2022-08-18T18:31:22.513Z,25.74
2022-08-18T18:36:52.073Z,25.75
2022-08-18T18:42:25.585Z,25.75
2022-08-18T18:47:59.179Z,25.66
2022-08-18T18:53:31.390Z,25.66
2022-08-18T18:59:10.056Z,25.66
2022-08-18T19:04:44.694Z,25.64
2022-08-18T19:10:15.562Z,25.54
2022-08-18T19:15:46.236Z,25.53
2022-08-18T19:22:03.235Z,25.50
2022-08-18T19:27:11.976Z,25.46
2022-08-18T19:32:44.101Z,25.40
2022-08-18T19:38:21.014Z,25.27
2022-08-18T19:43:56.149Z,25.12
2022-08-18T19:49:27.642Z,25.06
2022-08-18T19:55:03.816Z,24.99
2022-08-18T20:00:42.608Z,24.95
2022-08-18T20:06:34.519Z,24.92
2022-08-18T20:12:13.161Z,24.90
2022-08-18T20:17:56.850Z,24.85
2022-08-18T20:23:33.139Z,24.77
2022-08-18T20:29:03.496Z,24.69
2022-08-18T20:34:32.765Z,24.64
2022-08-18T20:40:05.781Z,24.62
2022-08-18T20:45:36.539Z,24.38
2022-08-18T20:51:12.334Z,24.35
2022-08-18T20:56:44.260Z,23.95
2022-08-18T21:02:28.078Z,23.97
2022-08-18T21:08:03.269Z,23.98
2022-08-18T21:13:33.195Z,23.99
2022-08-18T21:19:08.639Z,23.98
2022-08-18T21:24:38.784Z,23.74
2022-08-18T21:30:09.424Z,23.63
2022-08-18T21:35:39.470Z,23.60
2022-08-18T21:41:13.794Z,23.63
2022-08-18T21:46:43.324Z,23.61
2022-08-18T21:52:24.231Z,23.36
2022-08-18T21:58:01.029Z,23.27
2022-08-18T22:03:30.233Z,23.24
2022-08-18T22:09:22.920Z,22.88
2022-08-18T22:14:54.514Z,22.98
2022-08-18T22:20:35.015Z,23.03
2022-08-18T22:26:12.405Z,22.92
2022-08-18T22:31:42.809Z,22.96
2022-08-18T22:37:13.380Z,22.82
2022-08-18T22:42:43.252Z,22.91
2022-08-18T22:48:11.862Z,23.00
2022-08-18T22:53:40.588Z,23.05
2022-08-18T22:59:15.750Z,23.09
2022-08-18T23:04:48.049Z,23.12
2022-08-18T23:10:16.776Z,23.07
2022-08-18T23:15:47.817Z,23.01
2022-08-18T23:21:35.157Z,22.98
2022-08-18T23:27:05.641Z,22.89
2022-08-18T23:32:36.477Z,22.49
2022-08-18T23:38:07.558Z,22.57
2022-08-18T23:43:37.351Z,22.67
2022-08-18T23:49:10.803Z,22.63
2022-08-18T23:54:40.011Z,22.68
